createdAt,value
2019-03-27T00:00:37.457Z,4.88
2019-03-27T00:03:05.322Z,4.62
2019-03-27T00:05:33.287Z,4.62
2019-03-27T00:08:01.325Z,4.51
2019-03-27T00:10:29.324Z,4.53
2019-03-27T00:12:57.295Z,4.63
2019-03-27T00:15:25.264Z,4.58
2019-03-27T00:17:53.137Z,4.40
2019-03-27T00:20:20.893Z,4.28
2019-03-27T00:22:48.659Z,4.29
2019-03-27T00:25:16.525Z,4.17
2019-03-27T00:27:44.286Z,4.13
2019-03-27T00:30:13.489Z,4.14
2019-03-27T00:32:41.145Z,4.17
2019-03-27T00:35:09.115Z,4.11
2019-03-27T00:37:36.979Z,4.04
2019-03-27T00:40:05.055Z,3.89
2019-03-27T00:42:32.609Z,3.91
2019-03-27T00:45:00.405Z,3.92
2019-03-27T00:47:28.136Z,3.90
2019-03-27T00:49:55.902Z,3.80
2019-03-27T00:52:24.285Z,3.94
2019-03-27T00:54:52.050Z,3.82
2019-03-27T00:57:19.916Z,3.79
2019-03-27T00:59:47.599Z,3.72
2019-03-27T01:02:15.847Z,3.75
2019-03-27T01:04:44.427Z,3.77
2019-03-27T01:07:12.290Z,3.55
2019-03-27T01:09:39.985Z,3.48
2019-03-27T01:12:07.719Z,3.42
2019-03-27T01:14:35.586Z,3.55
2019-03-27T01:17:03.355Z,3.46
2019-03-27T01:19:31.114Z,3.35
2019-03-27T01:21:58.978Z,3.39
2019-03-27T01:24:26.747Z,3.33
2019-03-27T01:26:54.507Z,3.30
2019-03-27T01:29:22.269Z,3.31
2019-03-27T01:31:50.036Z,3.26
2019-03-27T01:34:17.800Z,3.19
2019-03-27T01:36:45.666Z,3.44
2019-03-27T01:39:13.526Z,3.51
2019-03-27T01:41:41.308Z,3.48
2019-03-27T01:44:09.062Z,3.38
2019-03-27T01:46:36.823Z,3.33
2019-03-27T01:49:04.588Z,3.26
2019-03-27T01:51:32.456Z,3.34
2019-03-27T01:54:00.933Z,3.27
2019-03-27T01:56:28.596Z,3.20
2019-03-27T01:58:57.486Z,3.28
2019-03-27T02:01:25.884Z,3.24
2019-03-27T02:03:53.623Z,3.28
2019-03-27T02:06:21.392Z,3.29
2019-03-27T02:08:49.153Z,3.34
2019-03-27T02:11:16.923Z,3.36
2019-03-27T02:13:44.677Z,3.46
2019-03-27T02:16:12.379Z,3.45
2019-03-27T02:18:40.209Z,3.34
2019-03-27T02:21:07.969Z,3.43
2019-03-27T02:23:35.733Z,3.39
2019-03-27T02:26:03.398Z,3.34
2019-03-27T02:28:31.158Z,3.44
2019-03-27T02:30:59.034Z,3.31
2019-03-27T02:33:26.801Z,3.31
2019-03-27T02:35:54.658Z,3.30
2019-03-27T02:38:22.523Z,3.32
2019-03-27T02:40:50.388Z,3.29
2019-03-27T02:43:18.256Z,3.36
2019-03-27T02:45:47.057Z,3.39
2019-03-27T02:48:14.808Z,3.30
2019-03-27T02:50:43.501Z,3.30
2019-03-27T02:53:11.766Z,3.35
2019-03-27T02:55:39.531Z,3.29
2019-03-27T02:58:07.297Z,3.24
2019-03-27T03:00:35.580Z,3.20
2019-03-27T03:03:03.344Z,3.49
2019-03-27T03:05:31.197Z,3.47
2019-03-27T03:07:58.968Z,3.50
2019-03-27T03:10:26.833Z,3.25
2019-03-27T03:12:54.725Z,3.23
2019-03-27T03:15:22.973Z,3.35
2019-03-27T03:17:50.534Z,3.44
2019-03-27T03:20:18.304Z,3.28
2019-03-27T03:22:46.170Z,3.28
2019-03-27T03:25:14.025Z,3.26
2019-03-27T03:27:41.797Z,3.08
2019-03-27T03:30:11.001Z,3.12
2019-03-27T03:32:38.569Z,3.16
2019-03-27T03:35:06.925Z,3.35
2019-03-27T03:37:34.686Z,3.14
2019-03-27T03:40:03.786Z,3.16
2019-03-27T03:42:31.658Z,3.30
2019-03-27T03:44:59.418Z,3.51
2019-03-27T03:47:27.309Z,3.65
2019-03-27T03:49:55.152Z,3.74
2019-03-27T03:52:23.728Z,3.82
2019-03-27T03:54:51.804Z,3.84
2019-03-27T03:57:20.895Z,4.00
2019-03-27T03:59:48.965Z,4.04
2019-03-27T04:02:17.138Z,4.16
2019-03-27T04:04:45.422Z,4.16
2019-03-27T04:07:13.490Z,4.32
2019-03-27T04:09:41.453Z,4.29
2019-03-27T04:12:09.320Z,4.25
2019-03-27T04:14:37.290Z,4.22
2019-03-27T04:17:17.160Z,4.16
2019-03-27T04:19:35.168Z,4.35
2019-03-27T04:22:03.037Z,4.36
2019-03-27T04:24:31.223Z,4.17
2019-03-27T04:26:59.176Z,4.11
2019-03-27T04:29:27.152Z,4.29
2019-03-27T04:31:55.231Z,4.41
2019-03-27T04:34:23.399Z,4.52
2019-03-27T04:36:51.874Z,4.62
2019-03-27T04:39:19.961Z,4.41
2019-03-27T04:41:47.810Z,4.39
2019-03-27T04:44:15.782Z,4.41
2019-03-27T04:46:43.879Z,4.62
2019-03-27T04:49:11.830Z,4.56
2019-03-27T04:51:39.995Z,4.53
2019-03-27T04:54:09.087Z,4.54
2019-03-27T04:56:37.160Z,4.59
2019-03-27T04:59:05.227Z,4.54
2019-03-27T05:01:33.709Z,4.61
2019-03-27T05:04:02.010Z,4.59
2019-03-27T05:06:29.950Z,4.69
2019-03-27T05:08:57.923Z,4.89
2019-03-27T05:11:25.889Z,4.88
2019-03-27T05:13:54.682Z,4.88
2019-03-27T05:16:22.744Z,4.81
2019-03-27T05:18:50.714Z,4.83
2019-03-27T05:21:18.684Z,4.88
2019-03-27T05:23:46.750Z,4.92
2019-03-27T05:26:14.725Z,4.93
2019-03-27T05:28:42.793Z,5.20
2019-03-27T05:31:10.867Z,5.14
2019-03-27T05:33:39.040Z,5.18
2019-03-27T05:36:07.108Z,5.24
2019-03-27T05:38:35.287Z,5.38
2019-03-27T05:41:03.354Z,5.24
2019-03-27T05:43:31.838Z,5.30
2019-03-27T05:46:00.009Z,5.66
2019-03-27T05:48:27.979Z,5.36
2019-03-27T05:50:56.049Z,5.54
2019-03-27T05:53:24.631Z,5.60
2019-03-27T05:55:52.593Z,5.94
2019-03-27T05:58:20.510Z,5.91
2019-03-27T06:00:48.847Z,6.02
2019-03-27T06:03:16.813Z,6.28
2019-03-27T06:05:44.888Z,6.06
2019-03-27T06:08:12.955Z,5.96
2019-03-27T06:10:41.141Z,6.21
2019-03-27T06:13:09.103Z,6.33
2019-03-27T06:15:36.960Z,6.26
2019-03-27T06:18:12.916Z,6.42
2019-03-27T06:20:35.563Z,6.54
2019-03-27T06:23:03.433Z,6.57
2019-03-27T06:28:25.989Z,6.85
2019-03-27T06:30:53.855Z,7.00
2019-03-27T06:33:21.824Z,7.08
2019-03-27T06:35:50.528Z,7.02
2019-03-27T06:38:18.581Z,6.78
2019-03-27T06:40:46.447Z,7.26
2019-03-27T06:43:15.435Z,7.54
2019-03-27T06:45:43.510Z,7.55
2019-03-27T06:48:11.478Z,7.44
2019-03-27T06:50:39.447Z,7.23
2019-03-27T06:53:07.417Z,7.68
2019-03-27T06:55:35.384Z,7.69
2019-03-27T06:58:03.354Z,7.68
2019-03-27T07:00:36.236Z,7.77
2019-03-27T07:03:05.639Z,7.73
2019-03-27T07:05:33.501Z,8.07
2019-03-27T07:08:01.469Z,8.17
2019-03-27T07:10:29.446Z,8.25
2019-03-27T07:12:57.408Z,8.46
2019-03-27T07:15:25.379Z,8.46
2019-03-27T07:17:53.346Z,8.28
2019-03-27T07:20:21.221Z,8.70
2019-03-27T07:22:49.184Z,8.70
2019-03-27T07:25:17.260Z,8.74
2019-03-27T07:27:45.223Z,8.54
2019-03-27T07:30:15.029Z,8.87
2019-03-27T07:32:43.210Z,8.85
2019-03-27T07:35:11.072Z,9.00
2019-03-27T07:37:39.145Z,8.90
2019-03-27T07:40:07.107Z,9.53
2019-03-27T07:42:35.085Z,9.35
2019-03-27T07:45:05.610Z,9.56
2019-03-27T07:47:33.270Z,9.37
2019-03-27T07:50:01.449Z,9.39
2019-03-27T07:52:29.621Z,9.19
2019-03-27T07:54:57.485Z,9.14
2019-03-27T07:57:25.559Z,9.43
2019-03-27T07:59:53.531Z,9.85
2019-03-27T08:02:21.813Z,10.13
2019-03-27T08:04:50.180Z,9.92
2019-03-27T08:07:26.813Z,10.49
2019-03-27T08:09:47.854Z,10.26
2019-03-27T08:12:15.829Z,10.54
2019-03-27T08:14:43.893Z,10.63
2019-03-27T08:17:11.656Z,9.60
2019-03-27T08:19:39.728Z,9.39
2019-03-27T08:22:07.698Z,9.63
2019-03-27T08:24:35.567Z,9.43
2019-03-27T08:27:03.525Z,9.56
2019-03-27T08:29:31.498Z,9.86
2019-03-27T08:31:59.467Z,9.49
2019-03-27T08:34:27.335Z,9.70
2019-03-27T08:36:55.611Z,9.96
2019-03-27T08:39:23.788Z,9.63
2019-03-27T08:41:51.754Z,9.93
2019-03-27T08:44:19.724Z,10.29
2019-03-27T08:46:47.686Z,10.48
2019-03-27T08:49:21.871Z,9.70
2019-03-27T08:51:45.264Z,9.76
2019-03-27T08:54:13.543Z,10.16
2019-03-27T08:56:41.611Z,10.66
2019-03-27T08:59:11.940Z,10.27
2019-03-27T09:01:40.308Z,10.36
2019-03-27T09:04:09.002Z,10.36
2019-03-27T09:06:36.970Z,10.25
2019-03-27T09:09:06.369Z,9.92
2019-03-27T09:11:34.441Z,10.12
2019-03-27T09:14:02.203Z,10.09
2019-03-27T09:16:30.167Z,10.44
2019-03-27T09:18:58.141Z,10.49
2019-03-27T09:21:26.106Z,10.35
2019-03-27T09:23:53.974Z,10.53
2019-03-27T09:26:21.945Z,10.71
2019-03-27T09:28:50.014Z,10.56
2019-03-27T09:31:18.100Z,10.51
2019-03-27T09:33:46.255Z,10.08
2019-03-27T09:36:14.432Z,10.05
2019-03-27T09:38:42.497Z,9.74
2019-03-27T09:41:10.267Z,9.63
2019-03-27T09:43:38.338Z,10.11
2019-03-27T09:46:06.302Z,9.48
2019-03-27T09:48:34.374Z,9.28
2019-03-27T09:51:03.063Z,9.63
2019-03-27T09:53:31.649Z,9.77
2019-03-27T09:55:59.633Z,9.77
2019-03-27T09:58:28.715Z,9.83
2019-03-27T10:00:58.112Z,10.13
2019-03-27T10:03:25.670Z,10.17
2019-03-27T10:05:53.739Z,10.03
2019-03-27T10:08:21.712Z,10.03
2019-03-27T10:10:49.880Z,10.23
2019-03-27T10:13:18.267Z,10.02
2019-03-27T10:15:46.227Z,10.39
2019-03-27T10:18:14.198Z,10.48
2019-03-27T10:20:42.161Z,10.53
2019-03-27T10:23:10.136Z,10.20
2019-03-27T10:25:38.103Z,10.19
2019-03-27T10:28:06.171Z,10.24
2019-03-27T10:30:34.146Z,10.38
2019-03-27T10:33:02.167Z,10.62
2019-03-27T10:35:30.394Z,10.31
2019-03-27T10:37:58.353Z,9.90
2019-03-27T10:40:26.325Z,9.88
2019-03-27T10:42:54.493Z,10.01
2019-03-27T10:45:22.369Z,10.03
2019-03-27T10:47:50.333Z,9.91
2019-03-27T10:50:18.387Z,9.48
2019-03-27T10:52:46.990Z,10.61
2019-03-27T10:55:14.643Z,11.13
2019-03-27T10:57:42.741Z,11.01
2019-03-27T11:00:10.790Z,10.99
2019-03-27T11:02:40.393Z,11.00
2019-03-27T11:05:08.670Z,10.84
2019-03-27T11:07:37.461Z,11.01
2019-03-27T11:10:06.690Z,10.30
2019-03-27T11:12:34.425Z,10.52
2019-03-27T11:15:05.164Z,10.88
2019-03-27T11:17:32.712Z,11.03
2019-03-27T11:20:00.786Z,10.79
2019-03-27T11:22:28.657Z,10.69
2019-03-27T11:24:56.619Z,10.58
2019-03-27T11:27:24.689Z,10.56
2019-03-27T11:29:52.597Z,10.75
2019-03-27T11:32:20.831Z,10.33
2019-03-27T11:34:48.898Z,10.15
2019-03-27T11:37:16.974Z,9.77
2019-03-27T11:39:44.939Z,10.19
2019-03-27T11:42:12.906Z,9.86
2019-03-27T11:44:40.876Z,10.30
2019-03-27T11:47:08.845Z,10.41
2019-03-27T11:49:36.820Z,10.98
2019-03-27T11:52:04.783Z,10.76
2019-03-27T11:54:34.183Z,10.86
2019-03-27T11:57:01.723Z,10.59
2019-03-27T11:59:29.927Z,10.63
2019-03-27T12:01:58.406Z,10.17
2019-03-27T12:04:26.569Z,9.80
2019-03-27T12:06:54.544Z,10.15
2019-03-27T12:09:22.510Z,10.17
2019-03-27T12:11:50.376Z,10.03
2019-03-27T12:14:18.564Z,10.36
2019-03-27T12:16:49.751Z,9.87
2019-03-27T12:19:16.225Z,10.23
2019-03-27T12:21:45.222Z,9.99
2019-03-27T12:24:13.390Z,10.01
2019-03-27T12:26:41.256Z,9.60
2019-03-27T12:29:09.231Z,9.41
2019-03-27T12:31:37.295Z,9.32
2019-03-27T12:34:05.268Z,9.44
2019-03-27T12:36:33.341Z,9.22
2019-03-27T12:39:01.309Z,8.98
2019-03-27T12:41:29.397Z,8.79
2019-03-27T12:43:57.354Z,8.90
2019-03-27T12:46:25.417Z,8.69
2019-03-27T12:48:53.282Z,8.21
2019-03-27T12:51:21.463Z,8.21
2019-03-27T12:53:49.939Z,8.12
2019-03-27T12:56:17.701Z,8.12
2019-03-27T12:58:45.774Z,8.20
2019-03-27T13:01:14.248Z,8.22
2019-03-27T13:03:44.508Z,8.17
2019-03-27T13:06:11.423Z,8.29
2019-03-27T13:08:39.488Z,7.73
2019-03-27T13:11:07.356Z,7.80
2019-03-27T13:13:35.220Z,7.73
2019-03-27T13:16:03.197Z,7.77
2019-03-27T13:18:31.155Z,7.31
2019-03-27T13:20:59.538Z,7.02
2019-03-27T13:23:27.717Z,6.94
2019-03-27T13:25:55.787Z,6.61
2019-03-27T13:28:23.751Z,6.66
2019-03-27T13:30:51.715Z,6.21
2019-03-27T13:33:19.686Z,6.26
2019-03-27T13:35:47.863Z,6.24
2019-03-27T13:38:15.828Z,6.14
2019-03-27T13:40:43.797Z,5.93
2019-03-27T13:43:11.769Z,6.01
2019-03-27T13:45:39.948Z,5.88
2019-03-27T13:48:07.913Z,5.92
2019-03-27T13:50:35.886Z,5.61
2019-03-27T13:53:04.260Z,5.52
2019-03-27T13:55:34.947Z,5.57
2019-03-27T13:58:02.035Z,5.30
2019-03-27T14:00:30.516Z,5.15
2019-03-27T14:02:58.584Z,5.36
2019-03-27T14:05:26.553Z,5.18
2019-03-27T14:07:54.619Z,5.09
2019-03-27T14:10:22.804Z,5.01
2019-03-27T14:12:50.986Z,4.81
2019-03-27T14:15:19.464Z,4.82
2019-03-27T14:17:47.429Z,4.75
2019-03-27T14:20:15.388Z,4.76
2019-03-27T14:22:43.357Z,5.05
2019-03-27T14:25:11.531Z,5.14
2019-03-27T14:27:39.498Z,4.84
2019-03-27T14:30:10.653Z,4.75
2019-03-27T14:32:38.610Z,4.76
2019-03-27T14:35:07.093Z,4.51
2019-03-27T14:37:34.954Z,4.91
2019-03-27T14:40:05.890Z,5.02
2019-03-27T14:42:33.456Z,4.86
2019-03-27T14:45:01.429Z,4.91
2019-03-27T14:47:29.388Z,4.82
2019-03-27T14:49:57.455Z,4.66
2019-03-27T14:52:25.938Z,4.58
2019-03-27T14:54:53.655Z,4.54
2019-03-27T14:57:21.669Z,4.04
2019-03-27T14:59:49.760Z,4.08
2019-03-27T15:02:18.323Z,4.35
2019-03-27T15:04:46.401Z,4.10
2019-03-27T15:07:14.364Z,4.00
2019-03-27T15:09:42.340Z,3.89
2019-03-27T15:12:10.407Z,3.77
2019-03-27T15:14:38.576Z,3.84
2019-03-27T15:17:06.446Z,3.66
2019-03-27T15:19:35.449Z,3.26
2019-03-27T15:22:03.425Z,3.06
2019-03-27T15:24:31.378Z,3.15
2019-03-27T15:26:59.452Z,3.07
2019-03-27T15:29:27.428Z,2.87
2019-03-27T15:31:55.378Z,2.73
2019-03-27T15:34:23.451Z,2.73
2019-03-27T15:36:51.531Z,2.67
2019-03-27T15:39:19.493Z,2.34
2019-03-27T15:41:47.365Z,2.41
2019-03-27T15:44:15.541Z,2.49
2019-03-27T15:46:43.513Z,2.12
2019-03-27T15:49:11.368Z,2.34
2019-03-27T15:51:40.535Z,2.18
2019-03-27T15:54:09.353Z,1.95
2019-03-27T15:56:38.561Z,2.06
2019-03-27T15:59:06.525Z,2.05
2019-03-27T16:01:34.999Z,1.63
2019-03-27T16:04:02.817Z,1.82
2019-03-27T16:06:32.208Z,1.72
2019-03-27T16:09:00.030Z,1.77
2019-03-27T16:11:28.107Z,2.00
2019-03-27T16:13:56.069Z,2.08
2019-03-27T16:16:24.448Z,1.97
2019-03-27T16:18:53.128Z,1.81
2019-03-27T16:21:21.208Z,1.87
2019-03-27T16:23:49.274Z,1.85
2019-03-27T16:26:17.347Z,1.86
2019-03-27T16:28:45.315Z,1.62
2019-03-27T16:31:13.181Z,1.87
2019-03-27T16:33:41.150Z,1.70
2019-03-27T16:36:09.321Z,1.57
2019-03-27T16:38:37.494Z,1.69
2019-03-27T16:41:05.370Z,1.79
2019-03-27T16:43:33.432Z,1.67
2019-03-27T16:46:01.407Z,1.82
2019-03-27T16:48:29.897Z,1.84
2019-03-27T16:50:58.058Z,2.00
2019-03-27T16:53:26.433Z,2.00
2019-03-27T16:55:54.500Z,2.06
2019-03-27T16:58:22.413Z,1.91
2019-03-27T17:00:50.750Z,1.88
2019-03-27T17:03:19.636Z,1.92
2019-03-27T17:05:53.833Z,1.78
2019-03-27T17:08:17.003Z,1.93
2019-03-27T17:10:44.981Z,1.62
2019-03-27T17:13:12.946Z,1.64
2019-03-27T17:15:40.913Z,1.39
2019-03-27T17:18:08.884Z,1.52
2019-03-27T17:20:37.571Z,1.43
2019-03-27T17:23:17.560Z,1.33
2019-03-27T17:25:35.348Z,1.50
2019-03-27T17:28:03.421Z,1.47
2019-03-27T17:30:32.122Z,1.42
2019-03-27T17:33:00.284Z,1.29
2019-03-27T17:35:28.701Z,1.29
2019-03-27T17:37:56.730Z,1.29
2019-03-27T17:40:24.797Z,1.39
2019-03-27T17:42:52.798Z,1.56
2019-03-27T17:45:22.396Z,1.62
2019-03-27T17:47:50.345Z,1.45
2019-03-27T17:50:18.411Z,1.42
2019-03-27T17:52:46.594Z,1.26
2019-03-27T17:55:14.664Z,1.49
2019-03-27T17:57:42.626Z,1.48
2019-03-27T18:00:14.896Z,1.65
2019-03-27T18:02:43.182Z,1.38
2019-03-27T18:05:10.939Z,1.22
2019-03-27T18:07:39.009Z,1.31
2019-03-27T18:10:06.876Z,1.61
2019-03-27T18:12:34.947Z,1.57
2019-03-27T18:15:05.883Z,1.52
2019-03-27T18:17:33.855Z,1.47
2019-03-27T18:20:01.824Z,1.47
2019-03-27T18:22:30.403Z,1.38
2019-03-27T18:24:59.090Z,1.48
2019-03-27T18:27:27.064Z,1.47
2019-03-27T18:29:55.025Z,1.39
2019-03-27T18:32:23.098Z,1.48
2019-03-27T18:34:51.170Z,1.31
2019-03-27T18:37:19.240Z,1.28
2019-03-27T18:39:47.292Z,1.48
2019-03-27T18:42:15.382Z,1.36
2019-03-27T18:44:43.345Z,1.14
2019-03-27T18:47:11.417Z,1.29
2019-03-27T18:49:39.285Z,1.45
2019-03-27T18:52:07.458Z,1.47
2019-03-27T18:54:35.938Z,1.42
2019-03-27T18:57:04.829Z,1.61
2019-03-27T18:59:32.895Z,1.47
2019-03-27T19:02:01.280Z,1.44
2019-03-27T19:04:29.242Z,1.38
2019-03-27T19:06:58.684Z,1.70
2019-03-27T19:09:26.823Z,1.58
2019-03-27T19:11:54.603Z,1.71
2019-03-27T19:14:22.757Z,1.62
2019-03-27T19:16:50.724Z,1.62
2019-03-27T19:19:18.691Z,1.69
2019-03-27T19:21:46.868Z,1.47
2019-03-27T19:24:16.704Z,1.44
2019-03-27T19:26:44.340Z,1.77
2019-03-27T19:29:12.315Z,1.76
2019-03-27T19:31:40.176Z,1.78
2019-03-27T19:34:08.261Z,1.77
2019-03-27T19:36:36.625Z,1.86
2019-03-27T19:39:06.847Z,1.74
2019-03-27T19:41:36.872Z,1.95
2019-03-27T19:44:05.135Z,1.74
2019-03-27T19:46:33.205Z,2.05
2019-03-27T19:49:01.181Z,1.70
2019-03-27T19:51:29.247Z,2.11
2019-03-27T19:53:57.424Z,2.13
2019-03-27T19:56:25.289Z,2.14
2019-03-27T19:58:53.154Z,2.25
2019-03-27T20:01:21.737Z,1.70
2019-03-27T20:03:49.823Z,1.94
2019-03-27T20:06:17.779Z,1.85
2019-03-27T20:08:45.847Z,1.67
2019-03-27T20:11:13.814Z,1.54
2019-03-27T20:13:41.785Z,1.66
2019-03-27T20:16:09.750Z,1.62
2019-03-27T20:18:37.929Z,1.87
2019-03-27T20:21:05.903Z,1.64
2019-03-27T20:23:34.580Z,2.05
2019-03-27T20:26:02.858Z,1.81
2019-03-27T20:28:30.719Z,1.86
2019-03-27T20:30:58.892Z,1.61
2019-03-27T20:33:27.068Z,1.74
2019-03-27T20:35:55.041Z,1.50
2019-03-27T20:38:23.246Z,1.58
2019-03-27T20:40:51.178Z,1.79
2019-03-27T20:43:19.349Z,1.64
2019-03-27T20:45:47.323Z,1.81
2019-03-27T20:48:15.289Z,1.87
2019-03-27T20:50:43.354Z,2.04
2019-03-27T20:53:11.530Z,2.08
2019-03-27T20:55:39.396Z,1.83
2019-03-27T20:58:07.467Z,1.58
2019-03-27T21:00:35.855Z,2.09
2019-03-27T21:03:03.612Z,1.98
2019-03-27T21:05:34.870Z,1.99
2019-03-27T21:08:01.190Z,2.09
2019-03-27T21:10:29.258Z,2.07
2019-03-27T21:12:57.432Z,2.09
2019-03-27T21:15:25.192Z,2.21
2019-03-27T21:17:53.170Z,2.18
2019-03-27T21:20:21.027Z,2.11
2019-03-27T21:22:49.002Z,1.93
2019-03-27T21:25:17.069Z,2.03
2019-03-27T21:27:45.042Z,2.10
2019-03-27T21:30:13.004Z,1.97
2019-03-27T21:32:41.079Z,2.14
2019-03-27T21:35:09.254Z,1.96
2019-03-27T21:37:37.217Z,1.91
2019-03-27T21:40:05.496Z,1.94
2019-03-27T21:42:33.256Z,1.72
2019-03-27T21:45:01.231Z,1.82
2019-03-27T21:47:29.198Z,1.75
2019-03-27T21:49:57.270Z,1.55
2019-03-27T21:52:26.465Z,1.74
2019-03-27T21:54:54.637Z,1.88
2019-03-27T21:57:22.605Z,1.82
2019-03-27T21:59:50.614Z,1.75
2019-03-27T22:02:19.772Z,1.80
2019-03-27T22:04:47.740Z,1.78
2019-03-27T22:07:19.187Z,1.75
2019-03-27T22:09:45.724Z,1.83
2019-03-27T22:12:14.720Z,1.69
2019-03-27T22:14:42.895Z,1.56
2019-03-27T22:17:10.964Z,1.62
2019-03-27T22:19:39.036Z,1.62
2019-03-27T22:22:07.010Z,1.53
2019-03-27T22:24:34.973Z,1.43
2019-03-27T22:27:02.937Z,1.62
2019-03-27T22:29:31.008Z,1.56
2019-03-27T22:31:58.982Z,1.68
2019-03-27T22:34:27.049Z,1.70
2019-03-27T22:36:55.117Z,1.67
2019-03-27T22:39:23.087Z,1.73
2019-03-27T22:41:51.157Z,1.58
2019-03-27T22:44:19.127Z,1.34
2019-03-27T22:46:47.200Z,1.38
2019-03-27T22:49:15.162Z,1.32
2019-03-27T22:51:43.233Z,1.34
2019-03-27T22:54:11.517Z,1.65
2019-03-27T22:56:39.069Z,1.48
2019-03-27T22:59:07.036Z,1.47
2019-03-27T23:01:43.097Z,1.47
2019-03-27T23:04:10.863Z,1.52
2019-03-27T23:06:38.848Z,1.56
2019-03-27T23:09:06.904Z,1.34
2019-03-27T23:11:35.073Z,1.35
2019-03-27T23:14:03.351Z,1.34
2019-03-27T23:16:31.316Z,1.32
2019-03-27T23:18:59.082Z,1.29
2019-03-27T23:21:26.946Z,1.22
2019-03-27T23:23:54.815Z,1.31
2019-03-27T23:26:22.681Z,1.20
2019-03-27T23:28:50.447Z,1.02
2019-03-27T23:31:18.309Z,0.83
2019-03-27T23:33:46.177Z,0.94
2019-03-27T23:36:14.967Z,1.11
2019-03-27T23:38:42.834Z,0.99
2019-03-27T23:41:10.594Z,0.85
2019-03-27T23:43:38.360Z,1.09
2019-03-27T23:46:06.121Z,1.15
2019-03-27T23:48:33.988Z,1.26
2019-03-27T23:51:01.955Z,1.04
2019-03-27T23:53:30.331Z,1.08
2019-03-27T23:55:58.613Z,0.82
2019-03-27T23:58:26.267Z,0.83
